createdAt,value
2017-09-20T00:00:21.214Z,53.65
2017-09-20T00:01:29.862Z,53.07
2017-09-20T00:02:38.829Z,53.07
2017-09-20T00:03:47.823Z,53.07
2017-09-20T00:04:56.792Z,53.65
2017-09-20T00:06:05.757Z,53.07
2017-09-20T00:07:14.746Z,53.55
2017-09-20T00:08:24.365Z,53.36
2017-09-20T00:09:33.043Z,53.74
2017-09-20T00:10:42.027Z,53.07
2017-09-20T00:11:50.688Z,53.74
2017-09-20T00:12:59.357Z,53.65
2017-09-20T00:14:08.643Z,53.07
2017-09-20T00:15:17.927Z,53.07
2017-09-20T00:16:26.889Z,53.74
2017-09-20T00:17:35.858Z,52.97
2017-09-20T00:18:45.154Z,53.07
2017-09-20T00:19:54.126Z,53.84
2017-09-20T00:21:03.141Z,53.74
2017-09-20T00:22:11.795Z,52.97
2017-09-20T00:23:21.080Z,53.74
2017-09-20T00:24:30.669Z,52.97
2017-09-20T00:25:39.641Z,53.65
2017-09-20T00:26:48.300Z,53.74
2017-09-20T00:27:57.261Z,52.97
2017-09-20T00:29:06.251Z,53.55
2017-09-20T00:30:15.844Z,53.74
2017-09-20T00:31:25.144Z,53.65
2017-09-20T00:32:34.122Z,52.97
2017-09-20T00:33:43.411Z,53.74
2017-09-20T00:34:52.379Z,53.55
2017-09-20T00:36:01.041Z,53.74
2017-09-20T00:37:10.007Z,53.55
2017-09-20T00:38:18.990Z,53.74
2017-09-20T00:39:27.940Z,52.87
2017-09-20T00:40:36.908Z,53.45
2017-09-20T00:41:45.862Z,53.45
2017-09-20T00:42:54.510Z,52.97
2017-09-20T00:44:03.158Z,53.65
2017-09-20T00:45:12.110Z,52.87
2017-09-20T00:46:20.767Z,52.97
2017-09-20T00:47:30.063Z,53.65
2017-09-20T00:48:38.718Z,53.65
2017-09-20T00:49:47.708Z,53.07
2017-09-20T00:50:56.694Z,52.97
2017-09-20T00:52:05.666Z,53.27
2017-09-20T00:53:14.314Z,53.17
2017-09-20T00:54:22.962Z,53.45
2017-09-20T00:55:31.939Z,53.36
2017-09-20T00:56:40.601Z,52.97
2017-09-20T00:57:49.591Z,53.45
2017-09-20T00:58:58.247Z,53.27
2017-09-20T01:00:06.910Z,53.36
2017-09-20T01:01:15.871Z,52.87
2017-09-20T01:02:25.468Z,52.97
2017-09-20T01:03:34.517Z,52.97
2017-09-20T01:04:43.483Z,52.97
2017-09-20T01:05:52.452Z,53.17
2017-09-20T01:07:01.760Z,52.97
2017-09-20T01:08:10.722Z,53.45
2017-09-20T01:09:19.708Z,52.97
2017-09-20T01:10:28.674Z,53.07
2017-09-20T01:11:37.649Z,53.07
2017-09-20T01:12:46.308Z,53.07
2017-09-20T01:13:55.914Z,52.87
2017-09-20T01:15:05.212Z,53.07
2017-09-20T01:16:14.826Z,53.07
2017-09-20T01:17:24.126Z,53.07
2017-09-20T01:18:33.119Z,53.27
2017-09-20T01:19:42.394Z,53.07
2017-09-20T01:20:51.040Z,52.97
2017-09-20T01:22:00.011Z,53.17
2017-09-20T01:23:09.614Z,52.87
2017-09-20T01:24:18.904Z,53.17
2017-09-20T01:25:28.213Z,53.36
2017-09-20T01:26:37.179Z,53.17
2017-09-20T01:27:45.831Z,52.87
2017-09-20T01:28:54.837Z,53.27
2017-09-20T01:30:04.114Z,52.97
2017-09-20T01:31:13.082Z,53.36
2017-09-20T01:32:22.053Z,53.27
2017-09-20T01:33:30.729Z,53.17
2017-09-20T01:34:40.022Z,53.27
2017-09-20T01:35:48.986Z,53.07
2017-09-20T01:36:57.953Z,53.17
2017-09-20T01:38:07.574Z,53.27
2017-09-20T01:39:16.859Z,53.17
2017-09-20T01:40:25.855Z,53.27
2017-09-20T01:41:35.485Z,53.36
2017-09-20T01:42:44.448Z,53.27
2017-09-20T01:43:53.750Z,53.17
2017-09-20T01:45:02.403Z,53.36
2017-09-20T01:46:11.377Z,53.27
2017-09-20T01:47:20.350Z,53.27
2017-09-20T01:48:29.337Z,53.17
2017-09-20T01:49:38.943Z,53.27
2017-09-20T01:50:47.593Z,53.07
2017-09-20T01:51:56.573Z,53.27
2017-09-20T01:53:05.861Z,53.27
2017-09-20T01:54:14.848Z,53.27
2017-09-20T01:55:23.831Z,53.27
2017-09-20T01:56:32.477Z,53.27
2017-09-20T01:57:41.458Z,53.27
2017-09-20T01:58:50.735Z,53.27
2017-09-20T01:59:59.700Z,53.27
2017-09-20T02:01:08.982Z,53.36
2017-09-20T02:02:18.577Z,53.36
2017-09-20T02:03:27.566Z,53.27
2017-09-20T02:04:36.527Z,53.27
2017-09-20T02:05:45.170Z,53.27
2017-09-20T02:06:54.460Z,53.36
2017-09-20T02:08:03.111Z,53.27
2017-09-20T02:09:12.085Z,53.27
2017-09-20T02:10:21.367Z,53.17
2017-09-20T02:11:30.672Z,53.27
2017-09-20T02:12:39.943Z,53.27
2017-09-20T02:13:48.902Z,53.27
2017-09-20T02:14:57.545Z,53.17
2017-09-20T02:16:06.823Z,53.27
2017-09-20T02:17:15.782Z,53.36
2017-09-20T02:18:24.742Z,53.07
2017-09-20T02:19:34.033Z,53.07
2017-09-20T02:20:43.325Z,53.07
2017-09-20T02:21:52.903Z,53.55
2017-09-20T02:23:01.873Z,53.45
2017-09-20T02:24:10.688Z,53.36
2017-09-20T02:25:19.980Z,53.17
2017-09-20T02:26:28.644Z,53.27
2017-09-20T02:27:37.919Z,53.07
2017-09-20T02:28:46.564Z,53.36
2017-09-20T02:29:55.544Z,53.55
2017-09-20T02:31:04.519Z,53.36
2017-09-20T02:32:13.804Z,53.36
2017-09-20T02:33:23.105Z,53.36
2017-09-20T02:34:32.097Z,53.07
2017-09-20T02:35:41.062Z,53.17
2017-09-20T02:36:50.032Z,52.97
2017-09-20T02:37:59.315Z,52.97
2017-09-20T02:39:08.599Z,53.17
2017-09-20T02:40:17.579Z,52.97
2017-09-20T02:41:27.179Z,53.07
2017-09-20T02:42:36.148Z,53.07
2017-09-20T02:43:45.098Z,53.07
2017-09-20T02:44:54.082Z,53.07
2017-09-20T02:46:03.368Z,53.07
2017-09-20T02:47:12.685Z,53.07
2017-09-20T02:48:21.976Z,52.87
2017-09-20T02:49:30.696Z,52.97
2017-09-20T02:50:39.756Z,52.97
2017-09-20T02:51:49.043Z,52.87
2017-09-20T02:52:57.700Z,52.87
2017-09-20T02:54:06.976Z,53.07
2017-09-20T02:55:15.953Z,52.97
2017-09-20T02:56:24.988Z,52.78
2017-09-20T02:57:33.948Z,52.97
2017-09-20T02:58:43.379Z,52.97
2017-09-20T02:59:52.343Z,52.87
2017-09-20T03:01:01.619Z,52.87
2017-09-20T03:02:10.896Z,52.78
2017-09-20T03:03:19.880Z,52.78
2017-09-20T03:04:28.842Z,52.87
2017-09-20T03:05:37.798Z,52.87
2017-09-20T03:06:47.090Z,52.78
2017-09-20T03:07:56.695Z,52.87
2017-09-20T03:09:05.717Z,52.97
2017-09-20T03:10:14.348Z,52.97
2017-09-20T03:11:23.651Z,52.78
2017-09-20T03:12:32.296Z,52.78
2017-09-20T03:13:41.279Z,52.78
2017-09-20T03:14:49.939Z,52.87
2017-09-20T03:15:58.656Z,52.97
2017-09-20T03:17:07.950Z,52.87
2017-09-20T03:18:16.604Z,52.87
2017-09-20T03:19:26.192Z,52.87
2017-09-20T03:20:34.844Z,52.87
2017-09-20T03:21:43.818Z,52.97
2017-09-20T03:22:52.843Z,52.97
2017-09-20T03:24:02.120Z,53.17
2017-09-20T03:25:11.094Z,52.87
2017-09-20T03:26:19.747Z,52.87
2017-09-20T03:27:28.710Z,52.97
2017-09-20T03:28:37.666Z,53.07
2017-09-20T03:29:46.641Z,52.87
2017-09-20T03:30:55.617Z,53.07
2017-09-20T03:32:04.613Z,53.07
2017-09-20T03:33:13.902Z,53.27
2017-09-20T03:34:22.857Z,53.07
2017-09-20T03:35:32.465Z,52.97
2017-09-20T03:36:41.749Z,53.07
2017-09-20T03:37:50.705Z,53.07
2017-09-20T03:38:59.682Z,53.17
2017-09-20T03:40:08.639Z,53.17
2017-09-20T03:41:17.955Z,52.97
2017-09-20T03:42:27.548Z,53.17
2017-09-20T03:43:36.215Z,52.97
2017-09-20T03:44:45.491Z,53.07
2017-09-20T03:45:54.770Z,53.07
2017-09-20T03:47:03.415Z,53.17
2017-09-20T03:48:12.414Z,52.69
2017-09-20T03:49:22.023Z,53.17
2017-09-20T03:50:31.607Z,53.17
2017-09-20T03:51:41.206Z,53.17
2017-09-20T03:52:50.510Z,53.07
2017-09-20T03:53:59.497Z,53.17
2017-09-20T03:55:08.455Z,53.17
2017-09-20T03:56:17.105Z,52.97
2017-09-20T03:57:26.394Z,53.17
2017-09-20T03:58:35.056Z,52.97
2017-09-20T03:59:44.023Z,53.17
2017-09-20T04:00:53.361Z,52.69
2017-09-20T04:02:02.645Z,53.07
2017-09-20T04:03:11.938Z,52.97
2017-09-20T04:04:20.964Z,52.59
2017-09-20T04:05:29.952Z,52.87
2017-09-20T04:06:39.550Z,52.87
2017-09-20T04:07:48.522Z,52.97
2017-09-20T04:08:57.178Z,52.97
2017-09-20T04:10:06.448Z,52.97
2017-09-20T04:11:15.095Z,52.87
2017-09-20T04:12:23.749Z,52.87
2017-09-20T04:13:32.700Z,53.27
2017-09-20T04:14:41.995Z,52.87
2017-09-20T04:15:51.271Z,52.49
2017-09-20T04:17:00.250Z,52.59
2017-09-20T04:18:09.208Z,52.69
2017-09-20T04:19:17.862Z,53.17
2017-09-20T04:20:26.515Z,53.17
2017-09-20T04:21:35.479Z,52.49
2017-09-20T04:22:44.446Z,53.17
2017-09-20T04:23:53.741Z,53.17
2017-09-20T04:25:03.045Z,52.59
2017-09-20T04:26:12.013Z,53.27
2017-09-20T04:27:20.689Z,53.36
2017-09-20T04:28:29.691Z,53.07
2017-09-20T04:29:39.001Z,53.27
2017-09-20T04:30:47.980Z,53.36
2017-09-20T04:31:56.639Z,52.4
2017-09-20T04:33:05.620Z,53.36
2017-09-20T04:34:14.586Z,53.27
2017-09-20T04:35:23.567Z,52.49
2017-09-20T04:36:33.183Z,53.27
2017-09-20T04:37:42.140Z,52.87
2017-09-20T04:38:51.428Z,53.27
2017-09-20T04:40:00.079Z,53.36
2017-09-20T04:41:09.104Z,53.27
2017-09-20T04:42:18.397Z,52.3
2017-09-20T04:43:27.367Z,52.87
2017-09-20T04:44:36.964Z,53.27
2017-09-20T04:45:45.963Z,52.87
2017-09-20T04:46:55.631Z,53.45
2017-09-20T04:48:05.078Z,52.87
2017-09-20T04:49:13.805Z,52.87
2017-09-20T04:50:22.896Z,53.27
2017-09-20T04:51:32.003Z,52.87
2017-09-20T04:52:41.463Z,52.97
2017-09-20T04:53:51.556Z,52.4
2017-09-20T04:55:00.604Z,52.87
2017-09-20T04:56:09.667Z,52.97
2017-09-20T04:57:19.024Z,52.87
2017-09-20T04:58:28.033Z,52.78
2017-09-20T04:59:36.737Z,52.11
2017-09-20T05:00:46.047Z,52.78
2017-09-20T05:01:54.712Z,52.69
2017-09-20T05:03:04.317Z,52.97
2017-09-20T05:04:13.051Z,52.49
2017-09-20T05:05:22.436Z,52.4
2017-09-20T05:06:31.747Z,52.49
2017-09-20T05:07:41.052Z,52.59
2017-09-20T05:08:49.737Z,52.69
2017-09-20T05:09:59.015Z,52.69
2017-09-20T05:11:08.306Z,52.4
2017-09-20T05:12:17.001Z,52.59
2017-09-20T05:13:26.060Z,52.59
2017-09-20T05:14:35.409Z,52.69
2017-09-20T05:15:44.443Z,52.69
2017-09-20T05:16:53.776Z,52.49
2017-09-20T05:18:02.801Z,52.59
2017-09-20T05:19:11.466Z,52.3
2017-09-20T05:20:20.172Z,52.78
2017-09-20T05:21:30.130Z,52.3
2017-09-20T05:22:39.483Z,52.42
2017-09-20T05:23:48.878Z,52.42
2017-09-20T05:24:58.198Z,52.2
2017-09-20T05:26:07.191Z,52.61
2017-09-20T05:27:16.501Z,52.61
2017-09-20T05:28:25.487Z,52.71
2017-09-20T05:29:34.456Z,52.04
2017-09-20T05:30:44.398Z,51.94
2017-09-20T05:31:53.681Z,51.84
2017-09-20T05:33:03.290Z,51.94
2017-09-20T05:34:12.268Z,52.04
2017-09-20T05:35:21.298Z,51.94
2017-09-20T05:36:30.929Z,51.75
2017-09-20T05:37:39.926Z,51.65
2017-09-20T05:38:49.240Z,51.65
2017-09-20T05:39:57.909Z,51.65
2017-09-20T05:41:07.195Z,51.56
2017-09-20T05:42:16.182Z,51.56
2017-09-20T05:43:25.539Z,51.65
2017-09-20T05:44:34.522Z,51.65
2017-09-20T05:45:43.521Z,51.94
2017-09-20T05:46:52.562Z,51.84
2017-09-20T05:48:01.274Z,51.84
2017-09-20T05:49:10.297Z,51.94
2017-09-20T05:50:19.335Z,51.65
2017-09-20T05:51:28.341Z,51.75
2017-09-20T05:52:37.014Z,51.84
2017-09-20T05:53:46.608Z,51.65
2017-09-20T05:54:55.582Z,51.68
2017-09-20T05:56:04.580Z,51.68
2017-09-20T05:57:13.909Z,51.75
2017-09-20T05:58:23.231Z,51.75
2017-09-20T05:59:31.926Z,51.87
2017-09-20T06:00:40.607Z,51.77
2017-09-20T06:01:49.899Z,51.84
2017-09-20T06:02:59.198Z,51.77
2017-09-20T06:04:08.189Z,51.75
2017-09-20T06:05:17.812Z,51.65
2017-09-20T06:06:26.786Z,51.65
2017-09-20T06:07:36.416Z,51.97
2017-09-20T06:08:45.080Z,51.87
2017-09-20T06:09:54.056Z,51.87
2017-09-20T06:11:03.349Z,51.87
2017-09-20T06:12:12.320Z,51.65
2017-09-20T06:13:21.034Z,51.58
2017-09-20T06:14:30.329Z,51.65
2017-09-20T06:15:39.944Z,51.75
2017-09-20T06:16:48.940Z,51.84
2017-09-20T06:17:58.964Z,51.87
2017-09-20T06:19:07.625Z,51.84
2017-09-20T06:20:16.927Z,51.65
2017-09-20T06:21:26.214Z,51.75
2017-09-20T06:22:35.532Z,51.56
2017-09-20T06:23:44.817Z,51.56
2017-09-20T06:24:54.105Z,51.75
2017-09-20T06:26:03.073Z,51.84
2017-09-20T06:27:12.380Z,51.94
2017-09-20T06:28:21.430Z,51.87
2017-09-20T06:29:30.750Z,51.94
2017-09-20T06:30:39.728Z,51.94
2017-09-20T06:31:48.393Z,51.94
2017-09-20T06:32:57.731Z,52.04
2017-09-20T06:34:06.428Z,51.94
2017-09-20T06:35:15.752Z,52.04
2017-09-20T06:36:25.075Z,51.97
2017-09-20T06:37:35.003Z,51.84
2017-09-20T06:38:43.664Z,51.94
2017-09-20T06:39:52.662Z,52.04
2017-09-20T06:41:01.343Z,52.06
2017-09-20T06:42:10.331Z,51.97
2017-09-20T06:43:19.642Z,52.06
2017-09-20T06:44:29.282Z,52.04
2017-09-20T06:45:38.271Z,51.94
2017-09-20T06:46:47.265Z,52.04
2017-09-20T06:47:55.940Z,52.06
2017-09-20T06:49:05.247Z,52.04
2017-09-20T06:50:14.539Z,51.87
2017-09-20T06:51:24.545Z,52.04
2017-09-20T06:52:33.859Z,51.94
2017-09-20T06:53:43.154Z,51.94
2017-09-20T06:54:52.455Z,52.23
2017-09-20T06:56:01.849Z,52.23
2017-09-20T06:57:10.507Z,52.23
2017-09-20T06:58:19.523Z,51.84
2017-09-20T06:59:28.208Z,52.23
2017-09-20T07:00:37.196Z,52.13
2017-09-20T07:01:46.497Z,51.94
2017-09-20T07:02:55.574Z,52.13
2017-09-20T07:04:04.570Z,52.04
2017-09-20T07:05:13.630Z,52.13
2017-09-20T07:06:22.663Z,51.94
2017-09-20T07:07:32.291Z,52.04
2017-09-20T07:08:41.606Z,51.84
2017-09-20T07:09:50.623Z,51.84
2017-09-20T07:10:59.594Z,51.94
2017-09-20T07:12:08.267Z,51.94
2017-09-20T07:13:17.612Z,52.13
2017-09-20T07:14:26.289Z,52.04
2017-09-20T07:15:34.976Z,52.23
2017-09-20T07:16:44.023Z,52.42
2017-09-20T07:17:53.652Z,52.13
2017-09-20T07:19:02.651Z,52.52
2017-09-20T07:20:11.646Z,52.04
2017-09-20T07:21:20.721Z,52.04
2017-09-20T07:22:30.069Z,51.94
2017-09-20T07:23:38.801Z,52.04
2017-09-20T07:24:48.126Z,51.94
2017-09-20T07:25:56.784Z,52.04
2017-09-20T07:27:05.806Z,51.84
2017-09-20T07:28:15.782Z,52.06
2017-09-20T07:29:25.100Z,51.84
2017-09-20T07:30:33.781Z,52.13
2017-09-20T07:31:43.134Z,52.13
2017-09-20T07:32:51.799Z,52.04
2017-09-20T07:34:00.804Z,51.94
2017-09-20T07:35:09.473Z,52.06
2017-09-20T07:36:18.791Z,52.13
2017-09-20T07:37:27.772Z,52.23
2017-09-20T07:38:36.447Z,52.16
2017-09-20T07:39:45.417Z,52.04
2017-09-20T07:40:54.080Z,52.13
2017-09-20T07:42:04.016Z,51.87
2017-09-20T07:43:13.296Z,51.84
2017-09-20T07:44:22.931Z,52.04
2017-09-20T07:45:32.031Z,52.16
2017-09-20T07:46:40.704Z,51.97
2017-09-20T07:47:50.030Z,51.87
2017-09-20T07:48:58.690Z,51.68
2017-09-20T07:50:07.730Z,51.48
2017-09-20T07:51:17.387Z,51.58
2017-09-20T07:52:26.680Z,51.68
2017-09-20T07:53:35.984Z,51.68
2017-09-20T07:54:44.975Z,51.77
2017-09-20T07:55:53.744Z,51.77
2017-09-20T07:57:02.406Z,51.58
2017-09-20T07:58:12.345Z,51.77
2017-09-20T07:59:21.066Z,51.48
2017-09-20T08:00:30.075Z,51.39
2017-09-20T08:01:39.734Z,51.2
2017-09-20T08:02:49.032Z,51.2
2017-09-20T08:03:58.326Z,51.39
2017-09-20T08:05:07.323Z,51.39
2017-09-20T08:06:16.313Z,51.29
2017-09-20T08:07:25.318Z,50.93
2017-09-20T08:08:33.986Z,51.12
2017-09-20T08:09:43.274Z,51.22
2017-09-20T08:10:52.587Z,51.12
2017-09-20T08:12:01.593Z,51.12
2017-09-20T08:13:10.624Z,50.84
2017-09-20T08:14:19.638Z,51.12
2017-09-20T08:15:28.363Z,51.03
2017-09-20T08:16:37.149Z,51.12
2017-09-20T08:17:45.981Z,51.32
2017-09-20T08:18:55.084Z,51.12
2017-09-20T08:20:03.795Z,51.03
2017-09-20T08:21:12.522Z,50.93
2017-09-20T08:22:22.138Z,50.93
2017-09-20T08:23:31.158Z,51.32
2017-09-20T08:24:40.149Z,51.41
2017-09-20T08:25:49.209Z,51.22
2017-09-20T08:26:58.518Z,51.39
2017-09-20T08:28:07.206Z,51.32
2017-09-20T08:29:15.877Z,51.22
2017-09-20T08:30:25.030Z,51.22
2017-09-20T08:31:34.071Z,51.2
2017-09-20T08:32:42.832Z,51.22
2017-09-20T08:33:51.809Z,51.32
2017-09-20T08:35:00.496Z,51.32
2017-09-20T08:36:09.810Z,51.2
2017-09-20T08:37:18.509Z,51.39
2017-09-20T08:38:27.495Z,51.41
2017-09-20T08:39:36.174Z,51
2017-09-20T08:40:45.152Z,52.06
2017-09-20T08:41:54.154Z,51.7
2017-09-20T08:43:03.443Z,51.68
2017-09-20T08:44:12.412Z,51.68
2017-09-20T08:45:22.024Z,51.77
2017-09-20T08:46:30.706Z,51.68
2017-09-20T08:47:39.984Z,51.68
2017-09-20T08:48:48.646Z,51.68
2017-09-20T08:49:57.956Z,51.77
2017-09-20T08:51:06.628Z,51.58
2017-09-20T08:52:15.614Z,51.87
2017-09-20T08:53:24.914Z,51.68
2017-09-20T08:54:33.567Z,51.48
2017-09-20T08:55:42.551Z,51.22
2017-09-20T08:56:52.162Z,51.22
2017-09-20T08:58:01.576Z,51.32
2017-09-20T08:59:10.601Z,51.12
2017-09-20T09:00:19.898Z,51.22
2017-09-20T09:01:29.239Z,51.22
2017-09-20T09:02:38.024Z,51.22
2017-09-20T09:03:47.321Z,51.32
2017-09-20T09:04:55.987Z,51.32
2017-09-20T09:06:04.661Z,51.03
2017-09-20T09:07:13.982Z,50.64
2017-09-20T09:08:22.650Z,50.74
2017-09-20T09:09:31.321Z,50.54
2017-09-20T09:10:40.632Z,50.84
2017-09-20T09:11:49.945Z,50.54
2017-09-20T09:12:58.930Z,50.54
2017-09-20T09:14:08.236Z,50.84
2017-09-20T09:15:16.909Z,50.64
2017-09-20T09:16:25.905Z,50.74
2017-09-20T09:17:35.552Z,50.74
2017-09-20T09:18:44.538Z,50.54
2017-09-20T09:19:53.532Z,50.64
2017-09-20T09:21:02.501Z,50.84
2017-09-20T09:22:11.178Z,50.74
2017-09-20T09:23:20.465Z,50.64
2017-09-20T09:24:29.149Z,50.93
2017-09-20T09:25:38.129Z,50.64
2017-09-20T09:26:47.530Z,50.64
2017-09-20T09:27:56.556Z,50.54
2017-09-20T09:29:06.173Z,50.74
2017-09-20T09:30:15.514Z,50.74
2017-09-20T09:31:24.491Z,50.84
2017-09-20T09:32:33.680Z,50.54
2017-09-20T09:33:42.665Z,50.67
2017-09-20T09:34:51.402Z,50.67
2017-09-20T09:36:00.105Z,50.67
2017-09-20T09:37:09.141Z,50.96
2017-09-20T09:38:19.082Z,50.86
2017-09-20T09:39:28.064Z,50.67
2017-09-20T09:40:37.040Z,50.76
2017-09-20T09:41:46.342Z,50.76
2017-09-20T09:42:55.038Z,50.67
2017-09-20T09:44:04.425Z,50.76
2017-09-20T09:45:13.419Z,50.67
2017-09-20T09:46:22.475Z,50.76
2017-09-20T09:47:31.792Z,50.86
2017-09-20T09:48:40.778Z,50.76
2017-09-20T09:49:50.084Z,50.96
2017-09-20T09:50:59.075Z,50.76
2017-09-20T09:52:07.736Z,50.86
2017-09-20T09:53:16.718Z,50.86
2017-09-20T09:54:26.350Z,50.86
2017-09-20T09:55:35.675Z,50.67
2017-09-20T09:56:44.663Z,50.96
2017-09-20T09:57:53.355Z,50.76
2017-09-20T09:59:02.971Z,51.05
2017-09-20T10:00:11.960Z,50.57
2017-09-20T10:01:20.940Z,51.12
2017-09-20T10:02:30.284Z,50.93
2017-09-20T10:03:38.992Z,51.05
2017-09-20T10:04:48.294Z,50.76
2017-09-20T10:05:57.006Z,50.67
2017-09-20T10:07:05.689Z,50.57
2017-09-20T10:08:14.674Z,50.67
2017-09-20T10:09:23.985Z,50.67
2017-09-20T10:10:33.367Z,50.96
2017-09-20T10:11:42.352Z,51.05
2017-09-20T10:12:51.649Z,50.96
2017-09-20T10:14:00.316Z,51.12
2017-09-20T10:15:09.335Z,51.12
2017-09-20T10:16:18.691Z,51.22
2017-09-20T10:17:27.778Z,51.12
2017-09-20T10:18:37.423Z,51.22
2017-09-20T10:19:46.416Z,51.12
2017-09-20T10:20:55.405Z,51.22
2017-09-20T10:22:04.072Z,50.93
2017-09-20T10:23:13.070Z,51.22
2017-09-20T10:24:22.116Z,51.12
2017-09-20T10:25:30.876Z,51.22
2017-09-20T10:26:40.295Z,51.03
2017-09-20T10:27:49.608Z,51.12
2017-09-20T10:28:58.307Z,51.12
2017-09-20T10:30:07.635Z,51.22
2017-09-20T10:31:16.645Z,51.22
2017-09-20T10:32:25.666Z,51.12
2017-09-20T10:33:34.509Z,51.22
2017-09-20T10:34:43.505Z,51.44
2017-09-20T10:35:52.181Z,51.41
2017-09-20T10:37:00.866Z,51.12
2017-09-20T10:38:10.195Z,50.93
2017-09-20T10:39:19.183Z,51.22
2017-09-20T10:40:28.186Z,51.12
2017-09-20T10:41:37.203Z,50.84
2017-09-20T10:42:46.513Z,51.05
2017-09-20T10:43:55.183Z,50.96
2017-09-20T10:45:03.855Z,50.76
2017-09-20T10:46:12.547Z,50.74
2017-09-20T10:47:21.223Z,51.12
2017-09-20T10:48:30.204Z,51.22
2017-09-20T10:49:39.192Z,51.12
2017-09-20T10:50:48.179Z,51.22
2017-09-20T10:51:57.528Z,51.12
2017-09-20T10:53:06.530Z,51.25
2017-09-20T10:54:15.524Z,51.12
2017-09-20T10:55:24.843Z,51.32
2017-09-20T10:56:34.136Z,51.41
2017-09-20T10:57:43.751Z,51.22
2017-09-20T10:58:53.731Z,51.22
2017-09-20T11:00:02.717Z,51.12
2017-09-20T11:01:12.016Z,51.41
2017-09-20T11:02:20.998Z,51.12
2017-09-20T11:03:29.658Z,51.12
2017-09-20T11:04:39.599Z,51.22
2017-09-20T11:05:48.903Z,51.03
2017-09-20T11:06:57.909Z,51.22
2017-09-20T11:08:06.600Z,51.41
2017-09-20T11:09:15.620Z,51.15
2017-09-20T11:10:24.936Z,51.22
2017-09-20T11:11:33.922Z,51.22
2017-09-20T11:12:43.229Z,51.12
2017-09-20T11:13:52.238Z,50.74
2017-09-20T11:15:01.851Z,51.22
2017-09-20T11:16:10.856Z,51.22
2017-09-20T11:17:20.179Z,51.12
2017-09-20T11:18:29.155Z,51.32
2017-09-20T11:19:38.155Z,51.22
2017-09-20T11:20:47.163Z,51.32
2017-09-20T11:21:56.810Z,51.12
2017-09-20T11:23:05.817Z,51.15
2017-09-20T11:24:15.126Z,51.15
2017-09-20T11:25:24.418Z,50.93
2017-09-20T11:26:33.728Z,50.84
2017-09-20T11:27:42.707Z,51.03
2017-09-20T11:28:52.337Z,50.86
2017-09-20T11:30:01.325Z,51.03
2017-09-20T11:31:10.011Z,51.03
2017-09-20T11:32:19.305Z,50.96
2017-09-20T11:33:28.300Z,50.67
2017-09-20T11:34:37.364Z,50.96
2017-09-20T11:35:46.045Z,50.86
2017-09-20T11:36:55.022Z,50.57
2017-09-20T11:38:04.330Z,50.86
2017-09-20T11:39:13.938Z,50.57
2017-09-20T11:40:22.631Z,50.86
2017-09-20T11:41:31.623Z,50.57
2017-09-20T11:42:40.293Z,50.86
2017-09-20T11:43:49.280Z,50.57
2017-09-20T11:44:58.595Z,50.76
2017-09-20T11:46:07.579Z,50.57
2017-09-20T11:47:16.242Z,50.67
2017-09-20T11:48:25.865Z,50.67
2017-09-20T11:49:35.175Z,50.86
2017-09-20T11:50:44.546Z,50.86
2017-09-20T11:51:53.534Z,50.86
2017-09-20T11:53:02.231Z,50.76
2017-09-20T11:54:11.246Z,50.76
2017-09-20T11:55:19.925Z,50.67
2017-09-20T11:56:29.234Z,50.57
2017-09-20T11:57:38.545Z,50.67
2017-09-20T11:58:47.531Z,50.67
2017-09-20T11:59:56.828Z,51.15
2017-09-20T12:01:06.164Z,51.05
2017-09-20T12:02:14.841Z,51.05
2017-09-20T12:03:23.830Z,51.15
2017-09-20T12:04:32.822Z,51.15
2017-09-20T12:05:41.886Z,51.15
2017-09-20T12:06:50.878Z,51.15
2017-09-20T12:07:59.937Z,51.12
2017-09-20T12:09:08.917Z,51.41
2017-09-20T12:10:17.912Z,51.22
2017-09-20T12:11:26.876Z,51.22
2017-09-20T12:12:35.867Z,51.12
2017-09-20T12:13:44.533Z,51.03
2017-09-20T12:14:53.849Z,50.93
2017-09-20T12:16:03.462Z,51.03
2017-09-20T12:17:12.787Z,50.84
2017-09-20T12:18:21.457Z,50.93
2017-09-20T12:19:30.138Z,51.22
2017-09-20T12:20:39.129Z,51.32
2017-09-20T12:21:48.141Z,51.12
2017-09-20T12:22:57.143Z,51.03
2017-09-20T12:24:06.764Z,51.03
2017-09-20T12:25:15.745Z,51.12
2017-09-20T12:26:24.406Z,51.12
2017-09-20T12:27:33.740Z,51.12
2017-09-20T12:28:42.737Z,51.12
2017-09-20T12:29:51.441Z,51.32
2017-09-20T12:31:00.760Z,51.22
2017-09-20T12:32:10.427Z,51.32
2017-09-20T12:33:19.491Z,50.84
2017-09-20T12:34:28.893Z,51.22
2017-09-20T12:35:37.920Z,51.03
2017-09-20T12:36:46.938Z,51.22
2017-09-20T12:37:55.952Z,51.32
2017-09-20T12:39:04.653Z,51.32
2017-09-20T12:40:13.718Z,51.25
2017-09-20T12:41:22.419Z,51.22
2017-09-20T12:42:31.723Z,51.32
2017-09-20T12:43:40.398Z,50.93
2017-09-20T12:44:49.394Z,51.22
2017-09-20T12:45:59.322Z,51.12
2017-09-20T12:47:08.330Z,51.03
2017-09-20T12:48:17.327Z,51.03
2017-09-20T12:49:26.980Z,50.93
2017-09-20T12:50:35.645Z,50.84
2017-09-20T12:51:44.945Z,50.93
2017-09-20T12:52:53.626Z,51.32
2017-09-20T12:54:03.574Z,50.93
2017-09-20T12:55:12.260Z,50.93
2017-09-20T12:56:21.562Z,51.32
2017-09-20T12:57:30.616Z,51.22
2017-09-20T12:58:39.598Z,51.22
2017-09-20T12:59:48.275Z,51.22
2017-09-20T13:00:56.956Z,51.32
2017-09-20T13:02:05.964Z,51.22
2017-09-20T13:03:14.975Z,51.51
2017-09-20T13:04:24.600Z,51.41
2017-09-20T13:05:33.278Z,51.41
2017-09-20T13:06:42.605Z,51.51
2017-09-20T13:07:51.332Z,51.22
2017-09-20T13:09:01.015Z,51.22
2017-09-20T13:10:09.720Z,51.32
2017-09-20T13:11:18.712Z,51.32
2017-09-20T13:12:27.406Z,51.22
2017-09-20T13:13:36.086Z,51.41
2017-09-20T13:14:44.767Z,51.22
2017-09-20T13:15:53.789Z,51.22
2017-09-20T13:17:02.780Z,51.41
2017-09-20T13:18:12.721Z,51.22
2017-09-20T13:19:22.348Z,51.32
2017-09-20T13:20:31.645Z,51.32
2017-09-20T13:21:40.627Z,51.32
2017-09-20T13:22:49.599Z,51.22
2017-09-20T13:23:58.630Z,51.22
2017-09-20T13:25:07.934Z,51.32
2017-09-20T13:26:16.602Z,51.22
2017-09-20T13:27:25.602Z,51.22
2017-09-20T13:28:34.581Z,51.22
2017-09-20T13:29:43.248Z,51.32
2017-09-20T13:30:52.565Z,51.22
2017-09-20T13:32:01.538Z,51.22
2017-09-20T13:33:10.521Z,51.32
2017-09-20T13:34:19.825Z,51.22
2017-09-20T13:35:28.490Z,51.41
2017-09-20T13:36:37.477Z,51.32
2017-09-20T13:37:46.480Z,51.22
2017-09-20T13:38:55.807Z,51.32
2017-09-20T13:40:04.807Z,51.22
2017-09-20T13:41:14.422Z,51.22
2017-09-20T13:42:23.417Z,51.22
2017-09-20T13:43:32.108Z,51.03
2017-09-20T13:44:41.096Z,51.22
2017-09-20T13:45:50.084Z,51.51
2017-09-20T13:46:59.077Z,51.41
2017-09-20T13:48:08.076Z,50.93
2017-09-20T13:49:17.065Z,51.03
2017-09-20T13:50:25.778Z,50.93
2017-09-20T13:51:35.743Z,51.41
2017-09-20T13:52:45.094Z,50.93
2017-09-20T13:53:53.759Z,51.03
2017-09-20T13:55:02.776Z,51.03
2017-09-20T13:56:11.781Z,51.22
2017-09-20T13:57:20.801Z,51.22
2017-09-20T13:58:29.496Z,51.22
2017-09-20T13:59:39.103Z,50.93
2017-09-20T14:00:48.091Z,51.12
2017-09-20T14:01:57.719Z,51.22
2017-09-20T14:03:06.394Z,51.41
2017-09-20T14:04:15.691Z,51.41
2017-09-20T14:05:24.997Z,51.22
2017-09-20T14:06:34.638Z,51.22
2017-09-20T14:07:43.299Z,51.12
2017-09-20T14:08:51.973Z,51.12
2017-09-20T14:10:00.994Z,51.32
2017-09-20T14:11:10.335Z,51.32
2017-09-20T14:12:19.328Z,51.22
2017-09-20T14:13:28.953Z,51.03
2017-09-20T14:14:37.632Z,51.03
2017-09-20T14:15:46.612Z,51.22
2017-09-20T14:16:55.925Z,51.03
2017-09-20T14:18:06.199Z,51.03
2017-09-20T14:19:15.194Z,51.03
2017-09-20T14:20:24.486Z,51.12
2017-09-20T14:21:33.827Z,50.93
2017-09-20T14:22:42.799Z,50.84
2017-09-20T14:23:52.414Z,51.22
2017-09-20T14:25:01.396Z,50.84
2017-09-20T14:26:10.403Z,51.03
2017-09-20T14:27:19.686Z,51.22
2017-09-20T14:28:28.671Z,51.22
2017-09-20T14:29:37.983Z,51.12
2017-09-20T14:30:47.603Z,51.12
2017-09-20T14:31:57.217Z,51.22
2017-09-20T14:33:05.920Z,51.22
2017-09-20T14:34:14.718Z,51.22
2017-09-20T14:35:23.956Z,51.03
2017-09-20T14:36:32.621Z,50.93
2017-09-20T14:37:41.309Z,50.84
2017-09-20T14:38:50.649Z,50.74
2017-09-20T14:39:59.332Z,50.74
2017-09-20T14:41:08.307Z,50.84
2017-09-20T14:42:17.302Z,51.12
2017-09-20T14:43:26.322Z,50.74
2017-09-20T14:44:35.642Z,51.03
2017-09-20T14:45:44.939Z,51.12
2017-09-20T14:46:53.642Z,51.03
2017-09-20T14:48:02.941Z,51.03
2017-09-20T14:49:11.633Z,51.22
2017-09-20T14:50:20.972Z,50.93